createdAt,value
2022-08-01T04:27:50.100Z,16.77
2022-08-01T04:31:01.425Z,16.77
2022-08-01T04:34:06.797Z,16.32
2022-08-01T04:37:12.308Z,16.36
2022-08-01T04:40:17.458Z,16.42
2022-08-01T04:43:20.423Z,16.51
2022-08-01T04:46:23.586Z,16.65
2022-08-01T04:49:26.483Z,16.78
2022-08-01T04:52:39.294Z,16.87
2022-08-01T04:55:44.835Z,16.95
2022-08-01T04:58:47.852Z,17.04
2022-08-01T05:02:01.197Z,17.57
2022-08-01T05:05:04.072Z,18.41
2022-08-01T05:08:07.296Z,19.53
2022-08-01T05:11:10.014Z,19.41
2022-08-01T05:14:12.760Z,19.61
2022-08-01T05:17:15.259Z,19.72
2022-08-01T05:20:19.031Z,19.74
2022-08-01T05:23:36.614Z,19.84
2022-08-01T05:26:57.718Z,20.66
2022-08-01T05:30:00.222Z,21.00
2022-08-01T05:33:03.052Z,21.36
2022-08-01T05:36:05.857Z,21.40
2022-08-01T05:39:08.775Z,22.35
2022-08-01T05:42:11.228Z,23.02
2022-08-01T05:45:14.005Z,22.85
2022-08-01T05:48:16.669Z,22.95
2022-08-01T05:51:19.795Z,23.87
2022-08-01T05:54:22.324Z,23.53
2022-08-01T05:57:25.067Z,23.79
2022-08-01T06:00:27.682Z,23.30
2022-08-01T06:03:32.278Z,22.87
2022-08-01T06:06:37.206Z,23.17
2022-08-01T06:09:39.929Z,22.46
2022-08-01T06:12:42.428Z,23.34
2022-08-01T06:15:45.282Z,23.26
2022-08-01T06:18:48.051Z,23.93
2022-08-01T06:21:54.255Z,24.08
2022-08-01T06:36:05.435Z,28.91
2022-08-01T06:39:08.308Z,27.87
2022-08-01T06:42:10.988Z,27.74
2022-08-01T06:45:15.051Z,27.21
2022-08-01T06:48:17.522Z,26.83
2022-08-01T06:51:21.766Z,26.01
2022-08-01T06:54:26.685Z,25.24
2022-08-01T06:57:29.722Z,25.00
2022-08-01T07:00:32.993Z,25.72
2022-08-01T07:03:54.527Z,26.44
2022-08-01T07:06:58.518Z,26.21
2022-08-01T07:10:01.823Z,28.40
2022-08-01T07:13:05.930Z,28.01
2022-08-01T07:16:08.668Z,27.59
2022-08-01T07:22:28.759Z,27.91
2022-08-01T07:25:32.475Z,28.29
2022-08-01T07:28:35.209Z,28.15
2022-08-01T07:31:46.930Z,27.68
2022-08-01T07:34:49.855Z,28.01
2022-08-01T07:37:54.151Z,28.51
2022-08-01T07:40:57.854Z,28.32
2022-08-01T07:44:04.693Z,28.04
2022-08-01T07:47:07.881Z,28.02
2022-08-01T07:50:11.194Z,28.48
2022-08-01T07:53:14.126Z,29.38
2022-08-01T07:56:16.676Z,29.89
2022-08-01T07:59:24.055Z,30.34
2022-08-01T08:02:29.051Z,30.87
2022-08-01T08:05:58.423Z,30.98
2022-08-01T08:08:56.791Z,31.39
2022-08-01T08:11:59.930Z,30.20
2022-08-01T08:53:37.364Z,25.21
2022-08-01T08:56:40.842Z,25.49
2022-08-01T08:59:47.516Z,25.77
2022-08-01T09:02:50.441Z,25.84
2022-08-01T09:05:53.192Z,25.24
2022-08-01T09:08:56.131Z,25.91
2022-08-01T09:15:51.174Z,24.88
2022-08-01T09:19:15.888Z,25.25
2022-08-01T09:22:23.865Z,25.32
2022-08-01T09:25:46.183Z,25.28
2022-08-01T09:28:50.547Z,25.67
2022-08-01T09:31:53.741Z,26.14
2022-08-01T09:34:57.247Z,26.39
2022-08-01T09:38:22.217Z,26.60
2022-08-01T09:41:37.680Z,27.03
2022-08-01T09:44:54.550Z,27.39
2022-08-01T09:47:57.918Z,26.74
2022-08-01T09:51:07.193Z,27.23
2022-08-01T09:54:12.363Z,27.41
2022-08-01T09:57:17.465Z,27.89
2022-08-01T10:00:44.224Z,28.72
2022-08-01T10:04:15.737Z,28.02
2022-08-01T10:07:20.158Z,28.41
2022-08-01T10:10:32.268Z,27.20
2022-08-01T10:13:36.972Z,28.04
2022-08-01T10:16:40.370Z,28.55
2022-08-01T10:19:44.621Z,27.94
2022-08-01T10:22:48.184Z,26.95
2022-08-01T10:26:04.520Z,27.63
2022-08-01T10:29:44.923Z,27.74
2022-08-01T10:32:36.047Z,27.67
2022-08-01T10:35:46.751Z,27.44
2022-08-01T10:38:56.991Z,27.08
2022-08-01T10:42:00.520Z,27.67
2022-08-01T10:45:14.161Z,27.58
2022-08-01T10:48:26.491Z,28.04
2022-08-01T11:00:01.955Z,28.42
2022-08-01T11:18:11.798Z,29.03
2022-08-01T11:21:59.001Z,29.87
2022-08-01T11:28:34.687Z,30.40
2022-08-01T11:31:39.240Z,31.15
2022-08-01T11:34:56.456Z,31.90
2022-08-01T11:38:25.376Z,31.80
2022-08-01T11:41:37.158Z,31.25
2022-08-01T11:44:51.749Z,30.78
2022-08-01T11:47:54.639Z,30.32
2022-08-01T11:51:02.012Z,30.46
2022-08-01T11:54:05.085Z,31.49
2022-08-01T11:57:13.972Z,31.99
2022-08-01T12:15:37.746Z,31.99
2022-08-01T12:18:43.366Z,31.38
2022-08-01T12:21:45.985Z,30.12
2022-08-01T12:24:49.158Z,30.76
2022-08-01T12:27:55.958Z,31.24
2022-08-01T12:30:59.919Z,30.99
2022-08-01T12:34:27.073Z,31.26
2022-08-01T12:37:30.590Z,31.82
2022-08-01T12:40:36.228Z,31.69
2022-08-01T12:43:39.273Z,31.77
2022-08-01T12:46:44.558Z,31.67
2022-08-01T12:49:49.701Z,31.66
2022-08-01T12:52:53.096Z,31.35
2022-08-01T12:55:59.243Z,30.53
2022-08-01T13:02:43.414Z,29.65
2022-08-01T13:05:56.457Z,30.41
2022-08-01T13:09:20.228Z,30.53
2022-08-01T13:12:23.589Z,29.77
2022-08-01T13:15:35.572Z,29.67
